In Amenas, Algeria
Current Conditions -  °F | °C
As of 11:00 PM on Wednesday 28 Jan 2015 (Local Time) from DAUZ Reporting Station
Clear Clear  
Wind Chill: 39°   Ceiling: Unl
Heat Index: 43°   Visibility: 6mi
Dew Point: 23°   Wind: 7mph
Humidity: 46%   Direction: 290°WNW
Pressure: 30.12"   Gusts: NA
Location:  28.05°N, 9.56°E
Report Text: DAUZ 282200Z 29006KT CAVOK 06/M05 Q1020
Loading
Personal Weather Stations






























Interactive Weather Map New forecast layout! Learn more

10-Day Weather Forecast

Advertisements
Track Severe Weather on mobile